sensor_id;sensor_type;location;lat;lon;timestamp;pressure;altitude;pressure_sealevel;temperature;humidity
70027;BME280;57506;50.092;15.804;2022-10-17T00:00:24;100001.50;;;12.77;100.00
70027;BME280;57506;50.092;15.804;2022-10-17T00:02:50;99987.88;;;12.71;100.00
70027;BME280;57506;50.092;15.804;2022-10-17T00:05:15;99996.91;;;12.78;100.00
70027;BME280;57506;50.092;15.804;2022-10-17T00:07:41;100011.94;;;12.80;100.00
70027;BME280;57506;50.092;15.804;2022-10-17T00:10:06;100009.88;;;12.68;100.00
70027;BME280;57506;50.092;15.804;2022-10-17T00:12:32;99999.28;;;12.66;100.00
70027;BME280;57506;50.092;15.804;2022-10-17T00:14:58;99986.66;;;12.58;100.00
70027;BME280;57506;50.092;15.804;2022-10-17T00:17:23;100004.38;;;12.61;100.00
70027;BME280;57506;50.092;15.804;2022-10-17T00:19:48;100009.22;;;12.51;100.00
70027;BME280;57506;50.092;15.804;2022-10-17T00:22:14;99994.59;;;12.45;100.00
70027;BME280;57506;50.092;15.804;2022-10-17T00:24:39;99997.97;;;12.47;100.00
70027;BME280;57506;50.092;15.804;2022-10-17T00:27:05;99989.75;;;12.41;100.00
70027;BME280;57506;50.092;15.804;2022-10-17T00:29:31;99992.81;;;12.38;100.00
70027;BME280;57506;50.092;15.804;2022-10-17T00:31:56;99985.72;;;12.37;100.00
70027;BME280;57506;50.092;15.804;2022-10-17T00:34:22;99993.59;;;12.46;100.00
70027;BME280;57506;50.092;15.804;2022-10-17T00:36:48;100002.53;;;12.47;100.00
70027;BME280;57506;50.092;15.804;2022-10-17T00:39:14;99991.97;;;12.52;100.00
70027;BME280;57506;50.092;15.804;2022-10-17T00:41:39;100000.75;;;12.54;100.00
70027;BME280;57506;50.092;15.804;2022-10-17T00:44:06;100009.97;;;12.59;100.00
70027;BME280;57506;50.092;15.804;2022-10-17T00:46:36;100014.56;;;12.59;100.00
70027;BME280;57506;50.092;15.804;2022-10-17T00:49:06;100009.63;;;12.48;100.00
70027;BME280;57506;50.092;15.804;2022-10-17T00:51:46;100012.41;;;12.40;100.00
70027;BME280;57506;50.092;15.804;2022-10-17T00:54:15;100004.09;;;12.26;100.00
70027;BME280;57506;50.092;15.804;2022-10-17T00:56:43;100008.94;;;12.16;100.00
70027;BME280;57506;50.092;15.804;2022-10-17T00:59:11;100004.16;;;12.18;100.00
70027;BME280;57506;50.092;15.804;2022-10-17T01:01:42;100010.88;;;12.22;100.00
70027;BME280;57506;50.092;15.804;2022-10-17T01:04:13;100008.53;;;12.19;100.00
70027;BME280;57506;50.092;15.804;2022-10-17T01:06:38;100019.59;;;12.33;100.00
70027;BME280;57506;50.092;15.804;2022-10-17T01:09:04;100020.88;;;12.37;100.00
70027;BME280;57506;50.092;15.804;2022-10-17T01:11:52;100028.53;;;12.33;100.00
70027;BME280;57506;50.092;15.804;2022-10-17T01:14:41;100017.59;;;12.26;100.00
70027;BME280;57506;50.092;15.804;2022-10-17T01:17:28;100014.72;;;12.13;100.00
70027;BME280;57506;50.092;15.804;2022-10-17T01:23:42;100016.94;;;12.24;100.00
70027;BME280;57506;50.092;15.804;2022-10-17T01:25:46;100015.56;;;12.29;100.00
70027;BME280;57506;50.092;15.804;2022-10-17T01:34:30;100022.06;;;12.19;100.00
70027;BME280;57506;50.092;15.804;2022-10-17T01:37:03;100005.66;;;12.06;100.00
70027;BME280;57506;50.092;15.804;2022-10-17T01:44:58;100014.06;;;11.88;100.00
70027;BME280;57506;50.092;15.804;2022-10-17T01:47:30;100016.13;;;11.86;100.00
70027;BME280;57506;50.092;15.804;2022-10-17T01:50:00;100011.81;;;11.77;100.00
70027;BME280;57506;50.092;15.804;2022-10-17T01:52:41;100022.25;;;11.80;100.00
70027;BME280;57506;50.092;15.804;2022-10-17T01:55:13;100023.69;;;11.68;100.00
70027;BME280;57506;50.092;15.804;2022-10-17T01:57:49;100013.25;;;11.65;100.00
70027;BME280;57506;50.092;15.804;2022-10-17T02:00:22;100013.34;;;11.72;100.00
70027;BME280;57506;50.092;15.804;2022-10-17T02:02:52;100003.16;;;11.59;100.00
70027;BME280;57506;50.092;15.804;2022-10-17T02:05:23;100016.03;;;11.72;100.00
70027;BME280;57506;50.092;15.804;2022-10-17T02:07:50;100013.72;;;11.69;100.00
70027;BME280;57506;50.092;15.804;2022-10-17T02:10:24;100019.47;;;11.66;100.00
70027;BME280;57506;50.092;15.804;2022-10-17T02:15:54;100019.00;;;11.62;100.00
70027;BME280;57506;50.092;15.804;2022-10-17T02:21:18;100009.56;;;11.58;100.00
70027;BME280;57506;50.092;15.804;2022-10-17T02:24:14;100024.16;;;11.49;100.00
70027;BME280;57506;50.092;15.804;2022-10-17T02:26:57;100007.47;;;11.45;100.00
70027;BME280;57506;50.092;15.804;2022-10-17T02:29:31;100019.97;;;11.46;100.00
70027;BME280;57506;50.092;15.804;2022-10-17T02:32:30;100028.38;;;11.51;100.00
70027;BME280;57506;50.092;15.804;2022-10-17T02:35:00;100024.88;;;11.43;100.00
70027;BME280;57506;50.092;15.804;2022-10-17T02:37:28;100025.13;;;11.33;100.00
70027;BME280;57506;50.092;15.804;2022-10-17T02:39:57;100006.78;;;11.20;100.00
70027;BME280;57506;50.092;15.804;2022-10-17T02:42:24;100024.78;;;11.28;100.00
70027;BME280;57506;50.092;15.804;2022-10-17T02:44:51;100015.25;;;11.17;100.00
70027;BME280;57506;50.092;15.804;2022-10-17T02:49:54;100020.06;;;10.99;100.00
70027;BME280;57506;50.092;15.804;2022-10-17T02:52:38;100019.19;;;11.07;100.00
70027;BME280;57506;50.092;15.804;2022-10-17T02:55:35;100009.72;;;11.11;100.00
70027;BME280;57506;50.092;15.804;2022-10-17T02:58:09;100001.38;;;11.20;100.00
70027;BME280;57506;50.092;15.804;2022-10-17T03:00:38;100012.63;;;11.32;100.00
70027;BME280;57506;50.092;15.804;2022-10-17T03:03:21;100030.78;;;11.38;100.00
70027;BME280;57506;50.092;15.804;2022-10-17T03:05:47;99995.72;;;11.38;100.00
70027;BME280;57506;50.092;15.804;2022-10-17T03:08:13;100020.50;;;11.42;100.00
70027;BME280;57506;50.092;15.804;2022-10-17T03:10:38;100028.47;;;11.35;100.00
70027;BME280;57506;50.092;15.804;2022-10-17T03:13:04;100032.53;;;11.31;100.00
70027;BME280;57506;50.092;15.804;2022-10-17T03:15:29;100043.06;;;11.49;100.00
70027;BME280;57506;50.092;15.804;2022-10-17T03:17:55;100035.19;;;11.39;100.00
70027;BME280;57506;50.092;15.804;2022-10-17T03:20:20;100045.97;;;11.39;100.00
70027;BME280;57506;50.092;15.804;2022-10-17T03:22:46;100052.38;;;11.38;100.00
70027;BME280;57506;50.092;15.804;2022-10-17T03:25:12;100045.13;;;11.39;100.00
70027;BME280;57506;50.092;15.804;2022-10-17T03:27:37;100050.25;;;11.34;100.00
70027;BME280;57506;50.092;15.804;2022-10-17T03:30:03;100057.16;;;11.36;100.00
70027;BME280;57506;50.092;15.804;2022-10-17T03:32:31;100063.84;;;11.40;100.00
70027;BME280;57506;50.092;15.804;2022-10-17T03:34:57;100060.22;;;11.25;100.00
70027;BME280;57506;50.092;15.804;2022-10-17T03:37:22;100062.25;;;11.23;100.00
70027;BME280;57506;50.092;15.804;2022-10-17T03:39:48;100059.63;;;11.15;100.00
70027;BME280;57506;50.092;15.804;2022-10-17T03:42:13;100051.44;;;11.00;100.00
70027;BME280;57506;50.092;15.804;2022-10-17T03:44:39;100066.03;;;11.06;100.00
70027;BME280;57506;50.092;15.804;2022-10-17T03:47:05;100053.28;;;11.00;100.00
70027;BME280;57506;50.092;15.804;2022-10-17T03:49:30;100049.22;;;11.04;100.00
70027;BME280;57506;50.092;15.804;2022-10-17T03:51:56;100054.47;;;11.28;100.00
70027;BME280;57506;50.092;15.804;2022-10-17T03:54:21;100046.25;;;11.21;100.00
70027;BME280;57506;50.092;15.804;2022-10-17T03:56:47;100059.25;;;11.18;100.00
70027;BME280;57506;50.092;15.804;2022-10-17T03:59:13;100069.75;;;11.13;100.00
70027;BME280;57506;50.092;15.804;2022-10-17T04:01:39;100064.84;;;11.08;100.00
70027;BME280;57506;50.092;15.804;2022-10-17T04:04:05;100073.00;;;11.00;100.00
70027;BME280;57506;50.092;15.804;2022-10-17T04:06:31;100062.94;;;10.86;100.00
70027;BME280;57506;50.092;15.804;2022-10-17T04:08:56;100064.47;;;10.80;100.00
70027;BME280;57506;50.092;15.804;2022-10-17T04:11:22;100055.75;;;10.70;100.00
70027;BME280;57506;50.092;15.804;2022-10-17T04:13:52;100067.00;;;10.74;100.00
70027;BME280;57506;50.092;15.804;2022-10-17T04:16:19;100069.63;;;10.51;100.00
70027;BME280;57506;50.092;15.804;2022-10-17T04:18:44;100061.06;;;10.31;100.00
70027;BME280;57506;50.092;15.804;2022-10-17T04:21:11;100059.19;;;10.40;100.00
70027;BME280;57506;50.092;15.804;2022-10-17T04:23:37;100064.41;;;10.49;100.00
70027;BME280;57506;50.092;15.804;2022-10-17T04:26:03;100065.72;;;10.62;100.00
70027;BME280;57506;50.092;15.804;2022-10-17T04:28:30;100069.47;;;10.52;100.00
70027;BME280;57506;50.092;15.804;2022-10-17T04:31:02;100074.97;;;10.59;100.00
70027;BME280;57506;50.092;15.804;2022-10-17T04:33:28;100071.28;;;10.60;100.00
70027;BME280;57506;50.092;15.804;2022-10-17T04:38:22;100077.78;;;10.82;100.00
70027;BME280;57506;50.092;15.804;2022-10-17T04:40:47;100081.34;;;10.74;100.00
70027;BME280;57506;50.092;15.804;2022-10-17T04:43:13;100077.28;;;10.86;100.00
70027;BME280;57506;50.092;15.804;2022-10-17T04:45:38;100080.59;;;10.97;100.00
70027;BME280;57506;50.092;15.804;2022-10-17T04:48:04;100086.84;;;10.97;100.00
70027;BME280;57506;50.092;15.804;2022-10-17T04:50:30;100075.94;;;10.82;100.00
70027;BME280;57506;50.092;15.804;2022-10-17T04:52:55;100085.22;;;10.72;100.00
70027;BME280;57506;50.092;15.804;2022-10-17T04:55:21;100083.19;;;10.74;100.00
70027;BME280;57506;50.092;15.804;2022-10-17T04:57:46;100089.75;;;10.88;100.00
70027;BME280;57506;50.092;15.804;2022-10-17T05:00:12;100070.38;;;10.76;100.00
70027;BME280;57506;50.092;15.804;2022-10-17T05:02:38;100091.88;;;11.00;100.00
70027;BME280;57506;50.092;15.804;2022-10-17T05:05:03;100090.19;;;10.99;100.00
70027;BME280;57506;50.092;15.804;2022-10-17T05:07:29;100100.28;;;11.05;100.00
70027;BME280;57506;50.092;15.804;2022-10-17T05:09:54;100091.84;;;11.08;100.00
70027;BME280;57506;50.092;15.804;2022-10-17T05:12:20;100098.34;;;11.22;100.00
70027;BME280;57506;50.092;15.804;2022-10-17T05:14:45;100103.88;;;11.29;100.00
70027;BME280;57506;50.092;15.804;2022-10-17T05:17:11;100116.19;;;11.31;100.00
70027;BME280;57506;50.092;15.804;2022-10-17T05:19:36;100110.97;;;11.30;100.00
70027;BME280;57506;50.092;15.804;2022-10-17T05:22:02;100114.44;;;11.46;100.00
70027;BME280;57506;50.092;15.804;2022-10-17T05:24:27;100108.50;;;11.51;100.00
70027;BME280;57506;50.092;15.804;2022-10-17T05:26:52;100113.53;;;11.54;100.00
70027;BME280;57506;50.092;15.804;2022-10-17T05:29:18;100122.13;;;11.57;100.00
70027;BME280;57506;50.092;15.804;2022-10-17T05:31:43;100120.78;;;11.53;100.00
70027;BME280;57506;50.092;15.804;2022-10-17T05:34:09;100129.88;;;11.61;100.00
70027;BME280;57506;50.092;15.804;2022-10-17T05:36:34;100127.03;;;11.54;100.00
70027;BME280;57506;50.092;15.804;2022-10-17T05:39:00;100130.34;;;11.64;100.00
70027;BME280;57506;50.092;15.804;2022-10-17T05:41:25;100131.22;;;11.56;100.00
70027;BME280;57506;50.092;15.804;2022-10-17T05:43:51;100127.34;;;11.59;100.00
70027;BME280;57506;50.092;15.804;2022-10-17T05:46:16;100130.75;;;11.53;100.00
70027;BME280;57506;50.092;15.804;2022-10-17T05:48:42;100150.13;;;11.56;100.00
70027;BME280;57506;50.092;15.804;2022-10-17T05:51:09;100143.88;;;11.56;100.00
70027;BME280;57506;50.092;15.804;2022-10-17T05:53:37;100156.03;;;11.60;100.00
70027;BME280;57506;50.092;15.804;2022-10-17T05:56:05;100160.66;;;11.82;100.00
70027;BME280;57506;50.092;15.804;2022-10-17T05:58:31;100158.66;;;11.76;100.00
70027;BME280;57506;50.092;15.804;2022-10-17T06:01:00;100178.00;;;11.88;100.00
70027;BME280;57506;50.092;15.804;2022-10-17T06:03:26;100126.69;;;11.88;100.00
70027;BME280;57506;50.092;15.804;2022-10-17T06:05:52;100139.50;;;11.86;100.00
70027;BME280;57506;50.092;15.804;2022-10-17T06:08:18;100141.88;;;11.89;100.00
70027;BME280;57506;50.092;15.804;2022-10-17T06:10:47;100137.72;;;11.78;100.00
70027;BME280;57506;50.092;15.804;2022-10-17T06:13:13;100151.97;;;11.95;100.00
70027;BME280;57506;50.092;15.804;2022-10-17T06:15:39;100164.50;;;12.11;100.00
70027;BME280;57506;50.092;15.804;2022-10-17T06:18:04;100172.09;;;12.15;100.00
70027;BME280;57506;50.092;15.804;2022-10-17T06:20:30;100176.56;;;12.23;100.00
70027;BME280;57506;50.092;15.804;2022-10-17T06:22:55;100173.25;;;12.36;100.00
70027;BME280;57506;50.092;15.804;2022-10-17T06:25:21;100189.13;;;12.39;100.00
70027;BME280;57506;50.092;15.804;2022-10-17T06:27:46;100189.31;;;12.37;100.00
70027;BME280;57506;50.092;15.804;2022-10-17T06:30:12;100184.38;;;12.41;100.00
70027;BME280;57506;50.092;15.804;2022-10-17T06:32:38;100180.88;;;12.55;100.00
70027;BME280;57506;50.092;15.804;2022-10-17T06:35:04;100190.03;;;12.69;100.00
70027;BME280;57506;50.092;15.804;2022-10-17T06:37:30;100194.19;;;12.79;100.00
70027;BME280;57506;50.092;15.804;2022-10-17T06:39:57;100187.28;;;12.77;100.00
70027;BME280;57506;50.092;15.804;2022-10-17T06:42:23;100204.38;;;12.92;100.00
70027;BME280;57506;50.092;15.804;2022-10-17T06:44:48;100196.81;;;13.02;100.00
70027;BME280;57506;50.092;15.804;2022-10-17T06:47:14;100204.97;;;13.17;100.00
70027;BME280;57506;50.092;15.804;2022-10-17T06:49:39;100214.72;;;13.26;100.00
70027;BME280;57506;50.092;15.804;2022-10-17T06:52:05;100216.38;;;13.27;100.00
70027;BME280;57506;50.092;15.804;2022-10-17T06:54:30;100226.66;;;13.61;100.00
70027;BME280;57506;50.092;15.804;2022-10-17T06:56:56;100217.78;;;13.52;100.00
70027;BME280;57506;50.092;15.804;2022-10-17T06:59:22;100224.84;;;13.68;100.00
70027;BME280;57506;50.092;15.804;2022-10-17T07:01:47;100229.59;;;13.81;100.00
70027;BME280;57506;50.092;15.804;2022-10-17T07:04:13;100224.47;;;13.86;100.00
70027;BME280;57506;50.092;15.804;2022-10-17T07:06:38;100241.81;;;14.06;100.00
70027;BME280;57506;50.092;15.804;2022-10-17T07:09:04;100245.16;;;14.08;100.00
70027;BME280;57506;50.092;15.804;2022-10-17T07:11:34;100249.44;;;14.17;100.00
70027;BME280;57506;50.092;15.804;2022-10-17T07:14:00;100251.06;;;14.33;100.00
70027;BME280;57506;50.092;15.804;2022-10-17T07:16:26;100255.00;;;14.30;100.00
70027;BME280;57506;50.092;15.804;2022-10-17T07:18:52;100255.03;;;14.52;100.00
70027;BME280;57506;50.092;15.804;2022-10-17T07:21:19;100278.38;;;14.67;100.00
70027;BME280;57506;50.092;15.804;2022-10-17T07:23:45;100262.66;;;14.63;100.00
70027;BME280;57506;50.092;15.804;2022-10-17T07:26:12;100251.53;;;14.79;100.00
70027;BME280;57506;50.092;15.804;2022-10-17T07:28:40;100261.97;;;14.76;100.00
70027;BME280;57506;50.092;15.804;2022-10-17T07:31:08;100256.97;;;14.79;100.00
70027;BME280;57506;50.092;15.804;2022-10-17T07:33:34;100262.97;;;14.96;100.00
70027;BME280;57506;50.092;15.804;2022-10-17T07:36:01;100262.91;;;14.89;100.00
70027;BME280;57506;50.092;15.804;2022-10-17T07:38:27;100255.91;;;15.01;100.00
70027;BME280;57506;50.092;15.804;2022-10-17T07:40:57;100258.88;;;15.07;100.00
70027;BME280;57506;50.092;15.804;2022-10-17T07:43:24;100262.84;;;15.04;100.00
70027;BME280;57506;50.092;15.804;2022-10-17T07:45:50;100247.28;;;15.19;100.00
70027;BME280;57506;50.092;15.804;2022-10-17T07:48:16;100245.41;;;15.20;100.00
70027;BME280;57506;50.092;15.804;2022-10-17T07:50:42;100251.41;;;15.43;100.00
70027;BME280;57506;50.092;15.804;2022-10-17T07:53:07;100255.44;;;15.54;100.00
70027;BME280;57506;50.092;15.804;2022-10-17T07:55:33;100237.41;;;15.46;100.00
70027;BME280;57506;50.092;15.804;2022-10-17T07:57:59;100255.50;;;15.60;100.00
70027;BME280;57506;50.092;15.804;2022-10-17T08:00:25;100237.56;;;15.66;100.00
70027;BME280;57506;50.092;15.804;2022-10-17T08:02:51;100240.75;;;15.76;100.00
70027;BME280;57506;50.092;15.804;2022-10-17T08:05:16;100248.59;;;15.99;100.00
70027;BME280;57506;50.092;15.804;2022-10-17T08:07:42;100246.09;;;16.04;100.00
70027;BME280;57506;50.092;15.804;2022-10-17T08:10:11;100256.16;;;16.10;100.00
70027;BME280;57506;50.092;15.804;2022-10-17T08:12:36;100254.91;;;16.13;100.00
70027;BME280;57506;50.092;15.804;2022-10-17T08:15:03;100256.44;;;16.22;100.00
70027;BME280;57506;50.092;15.804;2022-10-17T08:17:29;100267.94;;;16.30;100.00
70027;BME280;57506;50.092;15.804;2022-10-17T08:19:54;100260.81;;;16.29;100.00
70027;BME280;57506;50.092;15.804;2022-10-17T08:22:20;100251.22;;;16.33;100.00
70027;BME280;57506;50.092;15.804;2022-10-17T08:24:45;100252.09;;;16.47;100.00
70027;BME280;57506;50.092;15.804;2022-10-17T08:27:11;100254.81;;;16.54;100.00
70027;BME280;57506;50.092;15.804;2022-10-17T08:29:40;100243.50;;;16.57;100.00
70027;BME280;57506;50.092;15.804;2022-10-17T08:32:07;100256.69;;;16.60;100.00
70027;BME280;57506;50.092;15.804;2022-10-17T08:34:34;100256.56;;;16.68;100.00
70027;BME280;57506;50.092;15.804;2022-10-17T08:36:59;100256.34;;;16.69;100.00
70027;BME280;57506;50.092;15.804;2022-10-17T08:39:25;100248.81;;;16.71;100.00
70027;BME280;57506;50.092;15.804;2022-10-17T08:47:44;100257.59;;;17.06;100.00
70027;BME280;57506;50.092;15.804;2022-10-17T08:50:31;100253.44;;;17.04;100.00
70027;BME280;57506;50.092;15.804;2022-10-17T08:55:49;100267.22;;;17.29;100.00
70027;BME280;57506;50.092;15.804;2022-10-17T08:58:33;100264.66;;;17.54;100.00
70027;BME280;57506;50.092;15.804;2022-10-17T09:06:38;100247.88;;;17.63;99.40
70027;BME280;57506;50.092;15.804;2022-10-17T09:17:31;100240.53;;;17.77;98.02
70027;BME280;57506;50.092;15.804;2022-10-17T09:20:14;100240.72;;;17.82;96.29
70027;BME280;57506;50.092;15.804;2022-10-17T09:25:20;100234.22;;;17.83;96.90
70027;BME280;57506;50.092;15.804;2022-10-17T09:27:52;100236.47;;;17.93;96.96
70027;BME280;57506;50.092;15.804;2022-10-17T09:30:34;100243.13;;;18.03;96.77
70027;BME280;57506;50.092;15.804;2022-10-17T09:33:09;100235.38;;;18.07;95.20
70027;BME280;57506;50.092;15.804;2022-10-17T09:35:35;100243.75;;;18.05;93.67
70027;BME280;57506;50.092;15.804;2022-10-17T09:38:01;100238.91;;;18.14;94.75
70027;BME280;57506;50.092;15.804;2022-10-17T09:40:34;100234.25;;;18.21;95.92
70027;BME280;57506;50.092;15.804;2022-10-17T09:43:01;100244.81;;;18.49;94.05
70027;BME280;57506;50.092;15.804;2022-10-17T09:45:32;100237.69;;;18.48;95.36
70027;BME280;57506;50.092;15.804;2022-10-17T09:48:26;100228.06;;;18.39;93.58
70027;BME280;57506;50.092;15.804;2022-10-17T09:50:55;100226.34;;;18.44;93.85
70027;BME280;57506;50.092;15.804;2022-10-17T09:53:25;100225.91;;;18.47;95.10
70027;BME280;57506;50.092;15.804;2022-10-17T09:55:56;100243.38;;;18.78;91.26
70027;BME280;57506;50.092;15.804;2022-10-17T09:58:22;100240.22;;;18.81;91.97
70027;BME280;57506;50.092;15.804;2022-10-17T10:00:48;100231.50;;;18.66;91.43
70027;BME280;57506;50.092;15.804;2022-10-17T10:03:22;100241.88;;;18.82;91.82
70027;BME280;57506;50.092;15.804;2022-10-17T10:08:48;100243.44;;;18.96;91.14
70027;BME280;57506;50.092;15.804;2022-10-17T10:11:15;100239.81;;;19.02;89.48
70027;BME280;57506;50.092;15.804;2022-10-17T10:13:47;100236.59;;;19.12;90.02
70027;BME280;57506;50.092;15.804;2022-10-17T10:16:17;100227.38;;;19.06;89.28
70027;BME280;57506;50.092;15.804;2022-10-17T10:18:43;100231.78;;;19.07;89.22
70027;BME280;57506;50.092;15.804;2022-10-17T10:21:21;100227.41;;;19.25;88.38
70027;BME280;57506;50.092;15.804;2022-10-17T10:29:18;100212.31;;;19.40;88.22
70027;BME280;57506;50.092;15.804;2022-10-17T10:31:45;100220.31;;;19.42;88.47
70027;BME280;57506;50.092;15.804;2022-10-17T10:34:28;100222.75;;;19.50;88.31
70027;BME280;57506;50.092;15.804;2022-10-17T10:40:03;100206.34;;;19.68;86.82
70027;BME280;57506;50.092;15.804;2022-10-17T10:42:35;100199.09;;;19.80;87.13
70027;BME280;57506;50.092;15.804;2022-10-17T10:45:14;100198.38;;;19.67;88.06
70027;BME280;57506;50.092;15.804;2022-10-17T10:47:58;100210.59;;;19.82;86.24
70027;BME280;57506;50.092;15.804;2022-10-17T10:53:23;100208.03;;;19.87;85.13
70027;BME280;57506;50.092;15.804;2022-10-17T10:56:04;100203.91;;;19.97;85.77
70027;BME280;57506;50.092;15.804;2022-10-17T11:01:53;100206.16;;;20.00;83.54
70027;BME280;57506;50.092;15.804;2022-10-17T11:06:47;100196.63;;;20.20;82.25
70027;BME280;57506;50.092;15.804;2022-10-17T11:11:58;100196.47;;;20.15;83.07
70027;BME280;57506;50.092;15.804;2022-10-17T11:14:50;100193.81;;;20.27;81.09
70027;BME280;57506;50.092;15.804;2022-10-17T11:17:35;100193.53;;;20.17;81.95
70027;BME280;57506;50.092;15.804;2022-10-17T11:20:17;100185.00;;;20.25;82.35
70027;BME280;57506;50.092;15.804;2022-10-17T11:22:50;100179.19;;;20.33;82.14
70027;BME280;57506;50.092;15.804;2022-10-17T11:25:53;100183.63;;;20.46;80.01
70027;BME280;57506;50.092;15.804;2022-10-17T11:28:18;100163.81;;;20.32;80.61
70027;BME280;57506;50.092;15.804;2022-10-17T11:33:36;100170.09;;;20.51;81.73
70027;BME280;57506;50.092;15.804;2022-10-17T11:36:07;100158.81;;;20.59;79.43
70027;BME280;57506;50.092;15.804;2022-10-17T11:41:23;100164.75;;;20.44;80.02
70027;BME280;57506;50.092;15.804;2022-10-17T11:46:27;100147.81;;;20.47;80.25
70027;BME280;57506;50.092;15.804;2022-10-17T11:49:21;100149.75;;;20.58;77.82
70027;BME280;57506;50.092;15.804;2022-10-17T11:51:58;100148.22;;;20.74;78.30
70027;BME280;57506;50.092;15.804;2022-10-17T11:54:34;100159.41;;;20.61;76.74
70027;BME280;57506;50.092;15.804;2022-10-17T12:00:20;100156.41;;;20.63;78.12
70027;BME280;57506;50.092;15.804;2022-10-17T12:13:53;100139.06;;;20.92;76.37
70027;BME280;57506;50.092;15.804;2022-10-17T12:18:48;100141.19;;;20.78;76.67
70027;BME280;57506;50.092;15.804;2022-10-17T12:21:14;100137.63;;;21.01;77.23
70027;BME280;57506;50.092;15.804;2022-10-17T12:23:39;100139.28;;;21.02;76.82
70027;BME280;57506;50.092;15.804;2022-10-17T12:26:08;100132.13;;;21.13;75.97
70027;BME280;57506;50.092;15.804;2022-10-17T12:28:44;100145.81;;;21.13;76.38
70027;BME280;57506;50.092;15.804;2022-10-17T12:34:00;100134.03;;;21.12;75.27
70027;BME280;57506;50.092;15.804;2022-10-17T12:49:45;100128.06;;;21.15;74.61
70027;BME280;57506;50.092;15.804;2022-10-17T12:52:15;100124.03;;;21.29;72.92
70027;BME280;57506;50.092;15.804;2022-10-17T12:54:50;100107.69;;;21.11;71.99
70027;BME280;57506;50.092;15.804;2022-10-17T12:57:24;100123.06;;;21.12;73.38
70027;BME280;57506;50.092;15.804;2022-10-17T12:59:51;100125.72;;;21.07;73.55
70027;BME280;57506;50.092;15.804;2022-10-17T13:02:24;100125.13;;;21.05;72.59
70027;BME280;57506;50.092;15.804;2022-10-17T13:05:02;100120.09;;;21.14;71.58
70027;BME280;57506;50.092;15.804;2022-10-17T13:07:29;100127.84;;;21.05;73.30
70027;BME280;57506;50.092;15.804;2022-10-17T13:09:54;100123.69;;;21.03;73.65
70027;BME280;57506;50.092;15.804;2022-10-17T13:12:25;100116.78;;;21.00;72.85
70027;BME280;57506;50.092;15.804;2022-10-17T13:14:52;100119.88;;;21.04;72.35
70027;BME280;57506;50.092;15.804;2022-10-17T13:17:25;100125.22;;;20.99;72.99
70027;BME280;57506;50.092;15.804;2022-10-17T13:19:52;100125.72;;;21.07;73.58
70027;BME280;57506;50.092;15.804;2022-10-17T13:22:25;100136.41;;;20.97;73.33
70027;BME280;57506;50.092;15.804;2022-10-17T13:25:03;100128.34;;;21.02;73.75
70027;BME280;57506;50.092;15.804;2022-10-17T13:27:32;100134.03;;;21.01;74.57
70027;BME280;57506;50.092;15.804;2022-10-17T13:30:00;100135.94;;;21.00;72.67
70027;BME280;57506;50.092;15.804;2022-10-17T13:32:35;100139.88;;;21.04;71.10
70027;BME280;57506;50.092;15.804;2022-10-17T13:35:16;100135.84;;;21.07;72.71
70027;BME280;57506;50.092;15.804;2022-10-17T13:37:46;100120.22;;;21.07;72.42
70027;BME280;57506;50.092;15.804;2022-10-17T13:40:22;100126.66;;;21.13;72.57
70027;BME280;57506;50.092;15.804;2022-10-17T13:42:49;100117.25;;;20.97;73.77
70027;BME280;57506;50.092;15.804;2022-10-17T13:47:47;100119.25;;;21.13;71.29
70027;BME280;57506;50.092;15.804;2022-10-17T13:50:20;100117.59;;;21.12;71.61
70027;BME280;57506;50.092;15.804;2022-10-17T13:52:47;100124.41;;;21.10;72.98
70027;BME280;57506;50.092;15.804;2022-10-17T13:55:16;100124.25;;;21.16;72.70
70027;BME280;57506;50.092;15.804;2022-10-17T13:57:44;100113.16;;;21.11;73.31
70027;BME280;57506;50.092;15.804;2022-10-17T14:00:17;100116.78;;;21.00;73.34
70027;BME280;57506;50.092;15.804;2022-10-17T14:02:44;100110.22;;;21.01;72.26
70027;BME280;57506;50.092;15.804;2022-10-17T14:05:17;100118.53;;;20.94;73.03
70027;BME280;57506;50.092;15.804;2022-10-17T14:08:00;100118.31;;;21.08;71.94
70027;BME280;57506;50.092;15.804;2022-10-17T14:10:31;100120.81;;;20.98;72.83
70027;BME280;57506;50.092;15.804;2022-10-17T14:12:58;100117.84;;;20.99;72.41
70027;BME280;57506;50.092;15.804;2022-10-17T14:15:29;100107.72;;;20.88;73.58
70027;BME280;57506;50.092;15.804;2022-10-17T14:18:01;100109.53;;;20.94;72.46
70027;BME280;57506;50.092;15.804;2022-10-17T14:20:27;100097.00;;;21.10;71.88
70027;BME280;57506;50.092;15.804;2022-10-17T14:22:55;100097.13;;;21.03;72.55
70027;BME280;57506;50.092;15.804;2022-10-17T14:25:29;100098.41;;;21.01;72.00
70027;BME280;57506;50.092;15.804;2022-10-17T14:28:32;100095.22;;;20.92;74.04
70027;BME280;57506;50.092;15.804;2022-10-17T14:30:53;100092.34;;;20.87;73.49
70027;BME280;57506;50.092;15.804;2022-10-17T14:33:27;100088.91;;;20.80;72.53
70027;BME280;57506;50.092;15.804;2022-10-17T14:35:55;100104.63;;;20.73;74.08
70027;BME280;57506;50.092;15.804;2022-10-17T14:38:22;100102.25;;;20.76;74.01
70027;BME280;57506;50.092;15.804;2022-10-17T14:43:24;100100.44;;;20.82;74.07